createdAt,value
2017-08-22T00:00:25.013Z,5.30
2017-08-22T00:02:52.538Z,5.90
2017-08-22T00:05:20.086Z,5.37
2017-08-22T00:07:47.643Z,6.50
2017-08-22T00:10:15.209Z,5.30
2017-08-22T00:12:43.180Z,5.73
2017-08-22T00:15:10.718Z,5.20
2017-08-22T00:17:38.242Z,5.43
2017-08-22T00:20:05.807Z,5.00
2017-08-22T00:22:33.374Z,5.90
2017-08-22T00:25:01.333Z,5.10
2017-08-22T00:27:28.880Z,5.40
2017-08-22T00:29:56.416Z,4.60
2017-08-22T00:32:24.000Z,4.10
2017-08-22T00:34:51.554Z,5.50
2017-08-22T00:37:19.389Z,4.33
2017-08-22T00:39:46.913Z,4.50
2017-08-22T00:42:14.463Z,4.77
2017-08-22T00:44:42.038Z,4.50
2017-08-22T00:47:09.570Z,4.00
2017-08-22T00:49:37.397Z,3.40
2017-08-22T00:52:04.922Z,4.20
2017-08-22T00:54:32.478Z,4.27
2017-08-22T00:57:00.108Z,3.63
2017-08-22T00:59:27.654Z,3.70
2017-08-22T01:01:55.667Z,4.17
2017-08-22T01:04:23.210Z,4.30
2017-08-22T01:06:50.748Z,3.63
2017-08-22T01:09:18.324Z,3.57
2017-08-22T01:11:45.919Z,3.60
2017-08-22T01:14:13.889Z,3.30
2017-08-22T01:16:41.400Z,4.13
2017-08-22T01:19:08.917Z,3.80
2017-08-22T01:21:36.505Z,4.13
2017-08-22T01:24:04.053Z,3.87
2017-08-22T01:26:31.865Z,3.80
2017-08-22T01:28:59.383Z,4.10
2017-08-22T01:31:26.903Z,3.87
2017-08-22T01:33:54.483Z,3.60
2017-08-22T01:36:22.036Z,4.23
2017-08-22T01:38:49.897Z,3.90
2017-08-22T01:41:17.454Z,3.23
2017-08-22T01:43:44.988Z,3.80
2017-08-22T01:46:12.572Z,3.73
2017-08-22T01:48:40.117Z,3.73
2017-08-22T01:53:40.464Z,4.47
2017-08-22T01:56:07.985Z,3.97
2017-08-22T01:58:35.837Z,4.30
2017-08-22T02:01:03.389Z,4.10
2017-08-22T02:03:30.938Z,3.30
2017-08-22T02:05:58.500Z,4.67
2017-08-22T02:08:26.014Z,3.90
2017-08-22T02:10:53.905Z,4.27
2017-08-22T02:13:21.419Z,4.20
2017-08-22T02:15:48.952Z,3.60
2017-08-22T02:18:16.522Z,3.57
2017-08-22T02:20:44.044Z,4.47
2017-08-22T02:23:11.902Z,4.10
2017-08-22T02:25:39.453Z,3.53
2017-08-22T02:28:06.997Z,3.90
2017-08-22T02:30:34.557Z,3.97
2017-08-22T02:33:02.155Z,3.87
2017-08-22T02:35:30.026Z,4.50
2017-08-22T02:37:57.558Z,4.57
2017-08-22T02:40:25.109Z,4.23
2017-08-22T02:42:52.655Z,4.37
2017-08-22T02:45:20.197Z,4.73
2017-08-22T02:47:48.062Z,4.50
2017-08-22T02:50:15.621Z,4.27
2017-08-22T02:52:43.146Z,4.60
2017-08-22T02:55:10.739Z,3.97
2017-08-22T02:57:38.264Z,4.27
2017-08-22T03:00:06.097Z,4.07
2017-08-22T03:02:33.625Z,4.30
2017-08-22T03:05:01.171Z,4.20
2017-08-22T03:07:28.712Z,4.53
2017-08-22T03:09:56.225Z,3.80
2017-08-22T03:12:24.058Z,4.07
2017-08-22T03:14:51.592Z,4.57
2017-08-22T03:17:19.119Z,4.47
2017-08-22T03:19:46.672Z,3.70
2017-08-22T03:22:14.626Z,5.40
2017-08-22T03:24:42.558Z,4.20
2017-08-22T03:27:10.081Z,3.83
2017-08-22T03:29:37.621Z,4.00
2017-08-22T03:32:05.208Z,4.43
2017-08-22T03:34:32.755Z,4.20
2017-08-22T03:37:00.787Z,4.37
2017-08-22T03:39:28.324Z,4.47
2017-08-22T03:41:55.889Z,4.50
2017-08-22T03:44:23.459Z,4.33
2017-08-22T03:46:51.007Z,4.30
2017-08-22T03:49:18.897Z,3.53
2017-08-22T03:51:46.435Z,3.73
2017-08-22T03:54:13.965Z,4.17
2017-08-22T03:56:41.517Z,4.00
2017-08-22T03:59:09.075Z,4.23
2017-08-22T04:01:37.115Z,3.90
2017-08-22T04:04:04.720Z,4.00
2017-08-22T04:06:32.241Z,4.47
2017-08-22T04:08:59.807Z,3.77
2017-08-22T04:11:27.361Z,4.10
2017-08-22T04:13:55.236Z,4.23
2017-08-22T04:16:22.783Z,4.00
2017-08-22T04:18:50.291Z,4.33
2017-08-22T04:21:17.841Z,4.07
2017-08-22T04:23:45.357Z,3.80
2017-08-22T04:26:13.313Z,5.00
2017-08-22T04:28:40.881Z,4.47
2017-08-22T04:31:08.410Z,4.90
2017-08-22T04:33:35.973Z,4.40
2017-08-22T04:36:03.504Z,4.30
2017-08-22T04:38:31.371Z,5.47
2017-08-22T04:40:58.909Z,4.07
2017-08-22T04:43:26.454Z,4.00
2017-08-22T04:45:54.009Z,7.00
2017-08-22T04:48:21.534Z,4.30
2017-08-22T04:50:49.451Z,5.07
2017-08-22T04:53:16.976Z,4.57
2017-08-22T04:55:44.524Z,5.03
2017-08-22T04:58:12.078Z,4.30
2017-08-22T05:00:39.649Z,4.50
2017-08-22T05:03:07.479Z,4.30
2017-08-22T05:05:35.038Z,4.40
2017-08-22T05:08:02.565Z,4.73
2017-08-22T05:10:33.452Z,5.40
2017-08-22T05:13:01.002Z,5.03
2017-08-22T05:15:28.871Z,5.57
2017-08-22T05:17:56.414Z,5.40
2017-08-22T05:20:23.963Z,5.13
2017-08-22T05:22:51.550Z,5.63
2017-08-22T05:25:19.092Z,5.23
2017-08-22T05:27:46.927Z,5.30
2017-08-22T05:30:14.477Z,5.20
2017-08-22T05:32:47.493Z,7.47
2017-08-22T05:35:15.043Z,8.80
2017-08-22T05:37:43.587Z,5.77
2017-08-22T05:40:11.199Z,5.23
2017-08-22T05:42:38.735Z,5.70
2017-08-22T05:45:06.727Z,5.60
2017-08-22T05:47:34.378Z,5.20
2017-08-22T05:50:02.915Z,4.90
2017-08-22T05:52:30.467Z,4.60
2017-08-22T05:55:02.446Z,5.20
2017-08-22T05:57:30.367Z,4.77
2017-08-22T06:00:01.454Z,5.30
2017-08-22T06:02:28.980Z,4.97
2017-08-22T06:04:56.545Z,6.20
2017-08-22T06:07:24.059Z,4.23
2017-08-22T06:09:51.890Z,4.83
2017-08-22T06:12:19.435Z,5.93
2017-08-22T06:14:46.953Z,4.47
2017-08-22T06:17:14.497Z,5.70
2017-08-22T06:19:46.758Z,5.50
2017-08-22T06:22:14.592Z,5.90
2017-08-22T06:27:35.089Z,4.53
2017-08-22T06:30:03.683Z,4.70
2017-08-22T06:32:31.202Z,5.57
2017-08-22T06:35:24.208Z,4.73
2017-08-22T06:37:51.738Z,4.60
2017-08-22T06:40:19.647Z,4.93
2017-08-22T06:42:47.193Z,4.93
2017-08-22T06:45:14.729Z,4.60
2017-08-22T06:47:42.277Z,5.10
2017-08-22T06:50:09.811Z,4.60
2017-08-22T06:52:38.653Z,4.73
2017-08-22T06:55:08.203Z,5.00
2017-08-22T06:57:37.745Z,5.07
2017-08-22T07:00:15.683Z,4.30
2017-08-22T07:02:57.379Z,5.77
2017-08-22T07:05:24.923Z,5.47
2017-08-22T07:07:57.534Z,4.70
2017-08-22T07:10:50.876Z,7.13
2017-08-22T07:13:18.666Z,8.10
2017-08-22T07:15:46.193Z,5.30
2017-08-22T07:18:15.643Z,5.20
2017-08-22T07:20:43.227Z,4.50
2017-08-22T07:23:11.726Z,4.80
2017-08-22T07:25:40.638Z,4.87
2017-08-22T07:28:08.167Z,4.07
2017-08-22T07:30:35.718Z,5.30
2017-08-22T07:33:03.320Z,4.37
2017-08-22T07:35:30.874Z,4.90
2017-08-22T07:38:01.831Z,6.87
2017-08-22T07:40:29.399Z,5.00
2017-08-22T07:42:56.928Z,4.50
2017-08-22T07:45:24.517Z,4.43
2017-08-22T07:47:52.033Z,5.07
2017-08-22T07:50:19.923Z,5.07
2017-08-22T07:52:50.406Z,5.20
2017-08-22T07:55:17.935Z,4.77
2017-08-22T07:57:45.489Z,5.00
2017-08-22T08:00:13.029Z,5.47
2017-08-22T08:02:40.892Z,5.83
2017-08-22T08:05:08.412Z,5.50
2017-08-22T08:07:35.990Z,5.47
2017-08-22T08:10:03.562Z,5.17
2017-08-22T08:12:31.108Z,5.00
2017-08-22T08:14:59.021Z,5.30
2017-08-22T08:17:26.548Z,5.63
2017-08-22T08:19:54.078Z,5.53
2017-08-22T08:22:22.553Z,4.73
2017-08-22T08:24:50.120Z,5.90
2017-08-22T08:27:18.049Z,4.00
2017-08-22T08:29:45.602Z,5.20
2017-08-22T08:32:13.140Z,4.83
2017-08-22T08:34:40.708Z,4.80
2017-08-22T08:37:08.258Z,4.20
2017-08-22T08:39:36.119Z,4.50
2017-08-22T08:42:03.663Z,3.77
2017-08-22T08:44:31.189Z,5.00
2017-08-22T08:46:58.775Z,3.60
2017-08-22T08:49:26.326Z,4.33
2017-08-22T08:51:54.152Z,4.60
2017-08-22T08:54:21.678Z,3.67
2017-08-22T08:56:49.272Z,4.20
2017-08-22T08:59:16.814Z,3.90
2017-08-22T09:01:44.357Z,2.97
2017-08-22T09:04:12.347Z,3.80
2017-08-22T09:06:39.872Z,3.40
2017-08-22T09:09:07.413Z,3.47
2017-08-22T09:11:35.008Z,2.83
2017-08-22T09:14:02.554Z,3.90
2017-08-22T09:16:30.423Z,4.47
2017-08-22T09:18:57.961Z,3.93
2017-08-22T09:21:25.513Z,4.97
2017-08-22T09:23:53.088Z,4.10
2017-08-22T09:26:20.616Z,3.90
2017-08-22T09:28:48.495Z,4.70
2017-08-22T09:31:16.078Z,4.77
2017-08-22T09:33:43.640Z,3.80
2017-08-22T09:36:11.211Z,4.77
2017-08-22T09:38:38.766Z,5.17
2017-08-22T09:41:06.603Z,5.50
2017-08-22T09:43:34.128Z,5.90
2017-08-22T09:46:01.654Z,6.70
2017-08-22T09:48:29.203Z,6.07
2017-08-22T09:50:56.733Z,7.07
2017-08-22T09:53:24.554Z,7.93
2017-08-22T09:55:52.089Z,6.37
2017-08-22T09:58:19.609Z,5.97
2017-08-22T10:00:47.176Z,6.20
2017-08-22T10:03:14.696Z,5.47
2017-08-22T10:06:23.994Z,5.77
2017-08-22T10:08:51.521Z,5.87
2017-08-22T10:11:19.134Z,5.37
2017-08-22T10:13:46.715Z,5.43
2017-08-22T10:16:14.230Z,5.87
2017-08-22T10:18:41.784Z,6.10
2017-08-22T10:21:09.288Z,6.27
2017-08-22T10:23:37.087Z,6.97
2017-08-22T10:26:04.628Z,6.60
2017-08-22T10:28:32.190Z,6.97
2017-08-22T10:30:59.762Z,6.07
2017-08-22T10:33:27.312Z,7.33
2017-08-22T10:35:55.252Z,6.07
2017-08-22T10:38:22.778Z,7.97
2017-08-22T10:40:50.314Z,7.50
2017-08-22T10:43:17.926Z,8.33
2017-08-22T10:45:45.480Z,7.87
2017-08-22T10:48:13.311Z,7.17
2017-08-22T10:50:40.847Z,6.70
2017-08-22T10:53:08.409Z,6.60
2017-08-22T10:55:35.957Z,6.70
2017-08-22T10:58:03.486Z,7.27
2017-08-22T11:00:31.326Z,6.30
2017-08-22T11:02:58.844Z,5.80
2017-08-22T11:05:26.386Z,6.40
2017-08-22T11:07:53.932Z,6.77
2017-08-22T11:10:21.466Z,5.53
2017-08-22T11:12:49.370Z,5.60
2017-08-22T11:15:16.899Z,6.27
2017-08-22T11:17:44.437Z,5.90
2017-08-22T11:20:11.989Z,6.20
2017-08-22T11:22:39.521Z,6.10
2017-08-22T11:25:07.365Z,4.93
2017-08-22T11:27:34.912Z,5.93
2017-08-22T11:30:02.464Z,5.57
2017-08-22T11:32:30.034Z,5.37
2017-08-22T11:34:57.658Z,5.80
2017-08-22T11:37:25.566Z,5.63
2017-08-22T11:39:53.110Z,6.47
2017-08-22T11:42:20.655Z,5.87
2017-08-22T11:44:48.227Z,5.63
2017-08-22T11:47:15.774Z,5.70
2017-08-22T11:49:43.635Z,5.60
2017-08-22T11:52:11.177Z,5.27
2017-08-22T11:54:38.706Z,4.50
2017-08-22T11:57:06.254Z,4.97
2017-08-22T11:59:34.484Z,5.27
2017-08-22T12:02:02.321Z,4.43
2017-08-22T12:04:29.916Z,3.97
2017-08-22T12:06:57.519Z,4.30
2017-08-22T12:09:26.520Z,3.40
2017-08-22T12:11:54.044Z,3.63
2017-08-22T12:14:22.754Z,3.80
2017-08-22T12:16:50.291Z,5.27
2017-08-22T12:19:17.844Z,5.70
2017-08-22T12:21:45.428Z,5.20
2017-08-22T12:24:12.958Z,5.13
2017-08-22T12:26:41.004Z,6.10
2017-08-22T12:29:08.521Z,4.70
2017-08-22T12:31:36.088Z,4.83
2017-08-22T12:34:03.638Z,5.03
2017-08-22T12:36:31.203Z,5.20
2017-08-22T12:38:59.119Z,4.73
2017-08-22T12:41:26.650Z,4.90
2017-08-22T12:43:54.209Z,4.73
2017-08-22T12:46:21.782Z,4.97
2017-08-22T12:48:49.299Z,4.83
2017-08-22T12:51:17.122Z,4.93
2017-08-22T12:53:44.656Z,4.00
2017-08-22T12:56:12.258Z,4.03
2017-08-22T12:58:39.824Z,3.73
2017-08-22T13:01:07.366Z,3.47
2017-08-22T13:03:35.415Z,3.23
2017-08-22T13:06:02.936Z,3.77
2017-08-22T13:08:30.471Z,3.50
2017-08-22T13:10:58.042Z,3.50
2017-08-22T13:13:25.584Z,2.97
2017-08-22T13:15:53.443Z,3.10
2017-08-22T13:18:21.021Z,2.60
2017-08-22T13:20:48.540Z,3.10
2017-08-22T13:23:16.115Z,3.60
2017-08-22T13:25:43.739Z,3.17
2017-08-22T13:28:11.759Z,2.83
2017-08-22T13:30:39.287Z,2.60
2017-08-22T13:33:06.845Z,2.87
2017-08-22T13:35:34.441Z,2.60
2017-08-22T13:38:01.983Z,1.93
2017-08-22T13:40:29.839Z,2.07
2017-08-22T13:42:57.424Z,1.93
2017-08-22T13:45:24.949Z,2.40
2017-08-22T13:47:53.429Z,2.60
2017-08-22T13:50:21.007Z,2.20
2017-08-22T13:52:48.881Z,2.60
2017-08-22T13:55:16.436Z,2.30
2017-08-22T13:57:43.970Z,2.03
2017-08-22T14:00:12.106Z,2.23
2017-08-22T14:02:39.639Z,2.23
2017-08-22T14:05:07.523Z,2.37
2017-08-22T14:07:35.090Z,2.10
2017-08-22T14:10:02.723Z,2.47
2017-08-22T14:12:30.286Z,2.00
2017-08-22T14:14:57.834Z,1.90
2017-08-22T14:17:25.670Z,1.90
2017-08-22T14:19:53.217Z,1.90
2017-08-22T14:22:20.764Z,2.00
2017-08-22T14:24:48.399Z,2.10
2017-08-22T14:27:15.913Z,1.97
2017-08-22T14:29:43.854Z,2.00
2017-08-22T14:32:11.393Z,1.60
2017-08-22T14:34:38.927Z,1.90
2017-08-22T14:37:06.513Z,1.90
2017-08-22T14:39:34.060Z,1.80
2017-08-22T14:42:01.925Z,2.10
2017-08-22T14:44:29.450Z,2.23
2017-08-22T14:46:56.971Z,1.87
2017-08-22T14:49:24.562Z,1.90
2017-08-22T14:51:52.133Z,2.37
2017-08-22T14:54:20.073Z,1.90
2017-08-22T14:56:47.606Z,1.83
2017-08-22T14:59:15.163Z,1.43
2017-08-22T15:01:42.729Z,1.97
2017-08-22T15:04:10.244Z,1.60
2017-08-22T15:06:38.183Z,1.60
2017-08-22T15:09:05.722Z,2.10
2017-08-22T15:11:33.262Z,1.70
2017-08-22T15:14:00.848Z,2.03
2017-08-22T15:16:28.398Z,1.90
2017-08-22T15:18:56.314Z,3.17
2017-08-22T15:21:23.851Z,1.80
2017-08-22T15:23:51.390Z,2.10
2017-08-22T15:26:18.930Z,1.50
2017-08-22T15:28:46.450Z,1.60
2017-08-22T15:31:14.272Z,1.93
2017-08-22T15:33:41.824Z,1.80
2017-08-22T15:36:09.357Z,2.17
2017-08-22T15:38:36.928Z,1.93
2017-08-22T15:41:04.457Z,2.00
2017-08-22T15:43:32.312Z,2.00
2017-08-22T15:45:59.861Z,2.00
2017-08-22T15:48:27.445Z,1.60
2017-08-22T15:50:55.017Z,4.07
2017-08-22T15:53:26.701Z,3.23
2017-08-22T15:55:54.770Z,3.87
2017-08-22T15:58:24.428Z,7.03
2017-08-22T16:00:52.009Z,1.83
2017-08-22T16:06:29.592Z,6.27
2017-08-22T16:08:58.593Z,2.00
2017-08-22T16:11:38.629Z,5.80
2017-08-22T16:14:06.524Z,2.37
2017-08-22T16:22:19.542Z,1.93
2017-08-22T16:24:47.431Z,2.43
2017-08-22T16:27:14.953Z,2.00
2017-08-22T16:29:42.510Z,2.20
2017-08-22T16:32:10.064Z,2.27
2017-08-22T16:34:38.333Z,2.50
2017-08-22T16:37:08.211Z,1.90
2017-08-22T16:39:35.745Z,2.70
2017-08-22T16:42:03.447Z,6.60
2017-08-22T16:44:31.041Z,2.40
2017-08-22T16:46:58.598Z,2.10
2017-08-22T16:52:44.318Z,9.80
2017-08-22T16:55:23.990Z,13.07
2017-08-22T16:57:51.541Z,1.90
2017-08-22T17:00:19.394Z,2.50
2017-08-22T17:02:46.977Z,2.60
2017-08-22T17:05:15.404Z,2.37
2017-08-22T17:07:43.258Z,2.30
2017-08-22T17:10:11.779Z,2.30
2017-08-22T17:12:39.327Z,3.00
2017-08-22T17:15:06.898Z,2.57
2017-08-22T17:17:34.455Z,3.03
2017-08-22T17:20:02.395Z,3.30
2017-08-22T17:22:29.970Z,2.53
2017-08-22T17:24:57.502Z,2.80
2017-08-22T17:27:25.071Z,3.30
2017-08-22T17:29:52.615Z,2.23
2017-08-22T17:32:20.460Z,3.10
2017-08-22T17:34:48.014Z,2.27
2017-08-22T17:37:15.528Z,2.30
2017-08-22T17:39:43.089Z,2.60
2017-08-22T17:42:10.634Z,2.87
2017-08-22T17:44:38.480Z,2.10
2017-08-22T17:47:06.013Z,2.87
2017-08-22T17:49:33.571Z,3.83
2017-08-22T17:52:01.176Z,3.10
2017-08-22T17:54:28.718Z,2.50
2017-08-22T17:56:56.603Z,2.50
2017-08-22T17:59:24.135Z,2.80
2017-08-22T18:01:51.695Z,2.43
2017-08-22T18:04:19.278Z,2.40
2017-08-22T18:06:46.843Z,2.90
2017-08-22T18:09:17.686Z,2.67
2017-08-22T18:11:45.212Z,3.43
2017-08-22T18:14:15.671Z,5.70
2017-08-22T18:16:43.327Z,2.70
2017-08-22T18:19:10.873Z,2.87
2017-08-22T18:21:39.699Z,2.57
2017-08-22T18:24:07.247Z,2.90
2017-08-22T18:26:34.798Z,2.80
2017-08-22T18:29:20.503Z,2.50
2017-08-22T18:31:48.091Z,2.93
2017-08-22T18:34:16.051Z,4.17
2017-08-22T18:36:43.597Z,2.70
2017-08-22T18:39:11.130Z,2.93
2017-08-22T18:41:38.793Z,2.50
2017-08-22T18:44:06.336Z,3.00
2017-08-22T18:46:34.337Z,2.80
2017-08-22T18:49:01.887Z,2.80
2017-08-22T18:51:29.453Z,2.83
2017-08-22T18:53:57.045Z,2.80
2017-08-22T18:56:24.596Z,2.63
2017-08-22T18:58:53.487Z,2.70
2017-08-22T19:01:21.063Z,2.90
2017-08-22T19:03:48.596Z,2.60
2017-08-22T19:06:17.196Z,3.70
2017-08-22T19:08:44.762Z,2.77
2017-08-22T19:11:12.608Z,2.53
2017-08-22T19:13:40.168Z,3.23
2017-08-22T19:16:07.747Z,3.23
2017-08-22T19:18:35.359Z,3.13
2017-08-22T19:21:03.841Z,2.87
2017-08-22T19:23:32.694Z,2.83
2017-08-22T19:26:00.240Z,3.40
2017-08-22T19:28:27.785Z,3.67
2017-08-22T19:30:55.357Z,3.23
2017-08-22T19:33:22.889Z,4.90
2017-08-22T19:35:50.750Z,3.40
2017-08-22T19:38:18.298Z,3.97
2017-08-22T19:40:45.947Z,4.00
2017-08-22T19:43:13.559Z,4.10
2017-08-22T19:45:41.104Z,4.80
2017-08-22T19:48:08.968Z,4.50
2017-08-22T19:50:46.315Z,5.73
2017-08-22T19:53:14.301Z,5.17
2017-08-22T19:55:41.867Z,5.20
2017-08-22T19:58:09.426Z,5.73
2017-08-22T20:00:37.362Z,6.13
2017-08-22T20:03:04.907Z,9.13
2017-08-22T20:05:34.376Z,7.00
2017-08-22T20:08:02.266Z,6.17
2017-08-22T20:10:29.890Z,5.90
2017-08-22T20:13:02.549Z,5.23
2017-08-22T20:15:30.108Z,6.67
2017-08-22T20:17:57.652Z,7.40
2017-08-22T20:20:25.493Z,6.60
2017-08-22T20:22:53.044Z,7.00
2017-08-22T20:25:20.592Z,6.83
2017-08-22T20:27:48.517Z,5.70
2017-08-22T20:30:16.062Z,6.63
2017-08-22T20:32:43.695Z,6.03
2017-08-22T20:35:11.638Z,6.03
2017-08-22T20:37:39.294Z,5.50
2017-08-22T20:40:06.948Z,6.20
2017-08-22T20:42:34.999Z,5.50
2017-08-22T20:45:02.563Z,5.07
2017-08-22T20:47:50.251Z,8.10
2017-08-22T20:50:17.802Z,7.65
2017-08-22T20:52:45.385Z,5.70
2017-08-22T20:55:13.241Z,5.50
2017-08-22T20:57:46.531Z,5.70
2017-08-22T21:00:14.380Z,5.60
2017-08-22T21:02:41.937Z,5.37
2017-08-22T21:05:09.495Z,5.57
2017-08-22T21:07:38.340Z,5.70
2017-08-22T21:10:06.127Z,4.60
2017-08-22T21:12:33.739Z,5.50
2017-08-22T21:15:01.687Z,5.30
2017-08-22T21:17:29.991Z,4.73
2017-08-22T21:19:57.835Z,5.10
2017-08-22T21:22:25.745Z,5.03
2017-08-22T21:24:53.362Z,4.60
2017-08-22T21:27:20.909Z,4.90
2017-08-22T21:29:48.763Z,4.97
2017-08-22T21:32:16.295Z,5.73
2017-08-22T21:34:43.863Z,4.57
2017-08-22T21:37:11.734Z,4.87
2017-08-22T21:39:39.342Z,5.30
2017-08-22T21:42:07.154Z,5.30
2017-08-22T21:44:35.319Z,4.90
2017-08-22T21:47:03.125Z,4.63
2017-08-22T21:49:32.659Z,5.10
2017-08-22T21:52:01.055Z,5.50
2017-08-22T21:54:28.865Z,5.43
2017-08-22T21:56:56.429Z,4.60
2017-08-22T21:59:24.416Z,4.87
2017-08-22T22:01:52.047Z,5.03
2017-08-22T22:04:19.841Z,4.80
2017-08-22T22:06:47.705Z,4.93
2017-08-22T22:09:15.237Z,4.40
2017-08-22T22:11:42.863Z,5.40
2017-08-22T22:14:10.861Z,4.60
2017-08-22T22:16:42.976Z,4.20
2017-08-22T22:19:11.156Z,4.93
2017-08-22T22:21:40.957Z,5.43
2017-08-22T22:24:08.503Z,5.00
2017-08-22T22:26:36.382Z,5.00
2017-08-22T22:29:03.974Z,5.40
2017-08-22T22:31:31.526Z,5.10
2017-08-22T22:33:59.149Z,4.70
2017-08-22T22:36:26.746Z,4.30
2017-08-22T22:38:54.592Z,4.77
2017-08-22T22:41:22.130Z,5.17
2017-08-22T22:43:49.654Z,4.53
2017-08-22T22:46:17.227Z,4.50
2017-08-22T22:48:44.780Z,4.50
2017-08-22T22:51:12.357Z,5.03
2017-08-22T22:53:40.103Z,5.17
2017-08-22T22:56:07.790Z,5.40
2017-08-22T22:58:37.531Z,4.80
2017-08-22T23:01:05.112Z,5.37
2017-08-22T23:03:32.648Z,4.37
2017-08-22T23:06:00.283Z,4.70
2017-08-22T23:08:27.963Z,4.87
2017-08-22T23:10:55.868Z,4.73
2017-08-22T23:13:24.360Z,5.57
2017-08-22T23:15:52.045Z,5.17
2017-08-22T23:18:19.679Z,5.00
2017-08-22T23:20:47.232Z,4.13
2017-08-22T23:23:15.112Z,4.40
2017-08-22T23:25:42.703Z,4.73
2017-08-22T23:28:10.305Z,4.00
2017-08-22T23:30:37.914Z,4.73
2017-08-22T23:33:12.377Z,4.17
2017-08-22T23:35:40.349Z,4.40
2017-08-22T23:38:07.907Z,4.63
2017-08-22T23:40:35.498Z,4.13
2017-08-22T23:43:03.086Z,4.47
2017-08-22T23:45:30.674Z,3.50
2017-08-22T23:48:00.505Z,6.03
2017-08-22T23:50:28.038Z,3.93
2017-08-22T23:52:55.557Z,5.07
2017-08-22T23:55:23.126Z,3.97
2017-08-22T23:57:50.656Z,4.77
